CET,Max TemperatureF,Mean TemperatureF,Min TemperatureF,Max Dew PointF,MeanDew PointF,Min DewpointF,Max Humidity, Mean Humidity, Min Humidity, Max Sea Level PressureIn, Mean Sea Level PressureIn, Min Sea Level PressureIn, Max VisibilityMiles, Mean VisibilityMiles, Min VisibilityMiles, Max Wind SpeedMPH, Mean Wind SpeedMPH, Max Gust SpeedMPH,PrecipitationIn, CloudCover, Events, WindDirDegrees
2012-11-1,50,46,41,46,44,39,100,91,82,29.56,29.43,29.33,6,6,6,4,2,,0.00,6,,360
2012-11-2,60,52,42,50,47,43,100,90,68,29.89,29.76,29.62,6,6,4,5,2,,0.00,3,,328
2012-11-3,53,48,44,48,45,43,100,87,72,29.98,29.96,29.95,6,6,6,2,1,,0.00,6,,185
2012-11-4,50,49,48,50,49,48,100,99,94,29.89,29.79,29.59,4,3,2,2,0,,0.00,8,Rain,-1
2012-11-5,59,50,41,52,46,39,100,86,63,29.83,29.62,29.44,6,5,2,9,3,,0.00,6,Rain,287
2012-11-6,53,44,35,41,37,32,100,80,54,30.15,30.00,29.92,6,6,6,6,2,,0.00,2,,141
2012-11-7,59,44,30,46,34,28,93,71,31,30.39,30.32,30.27,6,6,6,6,2,,0.00,1,,187
2012-11-8,55,42,30,41,36,30,100,77,51,30.39,30.26,30.15,,,,4,1,,0.00,,,350
2012-11-9,57,45,33,43,39,34,100,82,55,30.15,30.11,30.06,6,6,6,4,2,,0.00,6,,90
2012-11-10,46,44,41,46,44,39,100,96,93,30.12,30.03,29.95,6,4,2,2,2,,0.00,8,Rain,-1
2012-11-11,48,46,44,48,46,43,100,97,93,30.09,29.95,29.86,6,4,1,5,2,,0.00,7,Rain,30
2012-11-12,53,48,42,50,46,41,100,96,82,30.27,30.19,30.12,6,6,6,5,3,,0.00,3,Fog,10
2012-11-13,62,50,39,48,44,39,100,85,55,30.42,30.38,30.33,6,6,6,5,3,,0.00,2,,43
2012-11-14,60,50,39,45,41,37,93,77,51,30.39,30.33,30.27,6,6,6,6,3,,0.00,3,,9
2012-11-15,53,43,33,39,36,32,100,81,54,30.30,30.22,30.15,,,,4,2,,0.00,,,250
2012-11-16,51,40,28,37,33,27,100,82,54,30.24,30.19,30.12,,,,2,1,,0.00,,,295
2012-11-17,50,38,26,36,31,27,100,80,47,30.18,30.10,30.01,,,,2,1,,0.00,,,295
2012-11-18,48,38,28,34,31,27,100,75,46,30.09,30.04,30.01,6,6,6,4,1,,0.00,5,,277
2012-11-19,50,40,30,39,35,30,100,74,58,30.09,30.06,30.04,6,6,6,5,1,,0.00,6,,6
2012-11-20,59,46,33,41,38,32,100,80,51,30.12,30.07,30.01,,,,5,2,,0.00,,,287
2012-11-21,55,42,28,41,36,28,100,85,54,30.18,30.15,30.09,6,6,6,2,1,,0.00,1,,320
2012-11-22,46,39,32,43,39,32,100,89,71,30.27,30.24,30.21,6,6,5,4,1,,0.00,7,Rain,356
2012-11-23,57,49,41,45,42,39,100,84,63,30.27,30.22,30.18,6,6,6,2,1,,0.00,4,,345
2012-11-24,55,44,33,43,40,34,100,84,62,30.30,30.24,30.18,6,6,6,4,2,,0.00,8,,86
2012-11-25,51,42,32,43,39,32,100,84,67,30.21,30.16,30.12,6,6,6,4,1,,0.00,4,,-1
2012-11-26,46,44,42,43,42,39,93,88,81,30.12,30.03,29.95,6,6,6,4,2,,0.00,7,,220
2012-11-27,50,46,42,48,45,43,100,94,87,29.83,29.77,29.71,6,4,0,5,1,,0.00,6,Fog-Rain,322
2012-11-28,48,46,44,48,46,45,100,99,93,29.62,29.44,29.27,5,3,1,8,2,,0.00,8,Fog-Rain-Thunderstorm,349
2012-11-29,46,44,39,45,42,36,100,90,76,29.44,29.35,29.27,6,6,5,6,3,,0.00,6,Rain,311
2012-11-30,50,44,37,36,32,28,87,65,46,29.74,29.61,29.50,6,6,6,2,2,,0.00,6,,-1